sensor_id;sensor_type;location;lat;lon;timestamp;pressure;altitude;pressure_sealevel;temperature;humidity
28927;BME280;16038;47.692;9.400;2023-05-21T00:01:16;96164.19;;;13.91;100.00
28927;BME280;16038;47.692;9.400;2023-05-21T00:03:43;96155.13;;;13.91;100.00
28927;BME280;16038;47.692;9.400;2023-05-21T00:06:11;96155.13;;;13.91;100.00
28927;BME280;16038;47.692;9.400;2023-05-21T00:08:38;96157.50;;;13.89;100.00
28927;BME280;16038;47.692;9.400;2023-05-21T00:11:04;96151.28;;;13.81;100.00
28927;BME280;16038;47.692;9.400;2023-05-21T00:13:30;96155.97;;;13.81;100.00
28927;BME280;16038;47.692;9.400;2023-05-21T00:15:55;96148.91;;;13.80;100.00
28927;BME280;16038;47.692;9.400;2023-05-21T00:18:21;96154.44;;;13.76;100.00
28927;BME280;16038;47.692;9.400;2023-05-21T00:20:46;96145.38;;;13.75;100.00
28927;BME280;16038;47.692;9.400;2023-05-21T00:23:12;96153.25;;;13.77;100.00
28927;BME280;16038;47.692;9.400;2023-05-21T00:25:37;96146.19;;;13.76;100.00
28927;BME280;16038;47.692;9.400;2023-05-21T00:28:03;96144.19;;;13.76;100.00
28927;BME280;16038;47.692;9.400;2023-05-21T00:30:28;96139.50;;;13.73;100.00
28927;BME280;16038;47.692;9.400;2023-05-21T00:32:54;96137.56;;;13.70;100.00
28927;BME280;16038;47.692;9.400;2023-05-21T00:35:19;96134.88;;;13.60;100.00
28927;BME280;16038;47.692;9.400;2023-05-21T00:37:45;96133.28;;;13.55;100.00
28927;BME280;16038;47.692;9.400;2023-05-21T00:40:11;96132.16;;;13.52;100.00
28927;BME280;16038;47.692;9.400;2023-05-21T00:42:37;96135.31;;;13.44;100.00
28927;BME280;16038;47.692;9.400;2023-05-21T00:45:04;96125.13;;;13.33;100.00
28927;BME280;16038;47.692;9.400;2023-05-21T00:47:30;96132.97;;;13.28;100.00
28927;BME280;16038;47.692;9.400;2023-05-21T00:49:56;96130.25;;;13.24;100.00
28927;BME280;16038;47.692;9.400;2023-05-21T00:52:21;96117.69;;;13.16;100.00
28927;BME280;16038;47.692;9.400;2023-05-21T00:54:51;96129.50;;;13.13;100.00
28927;BME280;16038;47.692;9.400;2023-05-21T00:57:21;96127.94;;;13.05;100.00
28927;BME280;16038;47.692;9.400;2023-05-21T00:59:47;96122.44;;;13.08;100.00
28927;BME280;16038;47.692;9.400;2023-05-21T01:02:14;96120.88;;;13.04;100.00
28927;BME280;16038;47.692;9.400;2023-05-21T01:04:43;96118.13;;;13.04;100.00
28927;BME280;16038;47.692;9.400;2023-05-21T01:07:09;96122.47;;;12.90;100.00
28927;BME280;16038;47.692;9.400;2023-05-21T01:09:34;96118.97;;;12.86;100.00
28927;BME280;16038;47.692;9.400;2023-05-21T01:12:00;96111.50;;;12.87;100.00
28927;BME280;16038;47.692;9.400;2023-05-21T01:14:26;96106.75;;;12.91;100.00
28927;BME280;16038;47.692;9.400;2023-05-21T01:16:51;96106.00;;;12.87;100.00
28927;BME280;16038;47.692;9.400;2023-05-21T01:19:20;96095.03;;;12.72;100.00
28927;BME280;16038;47.692;9.400;2023-05-21T01:21:51;96110.75;;;12.61;100.00
28927;BME280;16038;47.692;9.400;2023-05-21T01:24:17;96109.16;;;12.67;100.00
28927;BME280;16038;47.692;9.400;2023-05-21T01:26:43;96103.28;;;12.65;100.00
28927;BME280;16038;47.692;9.400;2023-05-21T01:29:11;96102.88;;;12.67;100.00
28927;BME280;16038;47.692;9.400;2023-05-21T01:34:19;96111.13;;;12.67;100.00
28927;BME280;16038;47.692;9.400;2023-05-21T01:36:51;96106.03;;;12.69;100.00
28927;BME280;16038;47.692;9.400;2023-05-21T01:39:23;96108.75;;;12.79;100.00
28927;BME280;16038;47.692;9.400;2023-05-21T01:41:52;96111.13;;;12.81;100.00
28927;BME280;16038;47.692;9.400;2023-05-21T01:44:19;96115.03;;;12.76;100.00
28927;BME280;16038;47.692;9.400;2023-05-21T01:46:46;96104.47;;;12.71;100.00
28927;BME280;16038;47.692;9.400;2023-05-21T01:49:11;96104.06;;;12.66;100.00
28927;BME280;16038;47.692;9.400;2023-05-21T01:51:37;96109.56;;;12.58;100.00
28927;BME280;16038;47.692;9.400;2023-05-21T01:54:03;96100.94;;;12.56;100.00
28927;BME280;16038;47.692;9.400;2023-05-21T01:56:28;96102.91;;;12.59;100.00
28927;BME280;16038;47.692;9.400;2023-05-21T01:58:57;96102.88;;;12.67;100.00
28927;BME280;16038;47.692;9.400;2023-05-21T02:01:24;96109.97;;;12.71;100.00
28927;BME280;16038;47.692;9.400;2023-05-21T02:03:50;96108.78;;;12.69;100.00
28927;BME280;16038;47.692;9.400;2023-05-21T02:06:15;96104.88;;;12.66;100.00
28927;BME280;16038;47.692;9.400;2023-05-21T02:08:41;96102.13;;;12.62;100.00
28927;BME280;16038;47.692;9.400;2023-05-21T02:11:06;96103.69;;;12.56;100.00
28927;BME280;16038;47.692;9.400;2023-05-21T02:13:31;96104.50;;;12.53;100.00
28927;BME280;16038;47.692;9.400;2023-05-21T02:15:57;96101.75;;;12.53;100.00
28927;BME280;16038;47.692;9.400;2023-05-21T02:18:22;96097.81;;;12.54;100.00
28927;BME280;16038;47.692;9.400;2023-05-21T02:20:48;96100.16;;;12.45;100.00
28927;BME280;16038;47.692;9.400;2023-05-21T02:23:14;96092.72;;;12.38;100.00
28927;BME280;16038;47.692;9.400;2023-05-21T02:25:39;96097.81;;;12.36;100.00
28927;BME280;16038;47.692;9.400;2023-05-21T02:28:05;96089.97;;;12.42;100.00
28927;BME280;16038;47.692;9.400;2023-05-21T02:30:30;96083.69;;;12.41;100.00
28927;BME280;16038;47.692;9.400;2023-05-21T02:32:56;96078.97;;;12.42;100.00
28927;BME280;16038;47.692;9.400;2023-05-21T02:35:22;96079.78;;;12.42;100.00
28927;BME280;16038;47.692;9.400;2023-05-21T02:37:48;96088.03;;;12.39;100.00
28927;BME280;16038;47.692;9.400;2023-05-21T02:40:13;96087.22;;;12.38;100.00
28927;BME280;16038;47.692;9.400;2023-05-21T02:42:39;96080.56;;;12.32;100.00
28927;BME280;16038;47.692;9.400;2023-05-21T02:45:09;96078.59;;;12.29;100.00
28927;BME280;16038;47.692;9.400;2023-05-21T02:47:36;96073.50;;;12.28;100.00
28927;BME280;16038;47.692;9.400;2023-05-21T02:50:06;96071.53;;;12.24;100.00
28927;BME280;16038;47.692;9.400;2023-05-21T02:52:32;96080.56;;;12.21;100.00
28927;BME280;16038;47.692;9.400;2023-05-21T02:54:57;96070.75;;;12.13;100.00
28927;BME280;16038;47.692;9.400;2023-05-21T02:57:23;96077.03;;;12.14;100.00
28927;BME280;16038;47.692;9.400;2023-05-21T02:59:48;96077.81;;;12.14;100.00
28927;BME280;16038;47.692;9.400;2023-05-21T03:02:14;96071.94;;;12.12;100.00
28927;BME280;16038;47.692;9.400;2023-05-21T03:04:39;96075.06;;;12.11;100.00
28927;BME280;16038;47.692;9.400;2023-05-21T03:07:10;96074.69;;;12.12;100.00
28927;BME280;16038;47.692;9.400;2023-05-21T03:09:38;96071.94;;;12.12;100.00
28927;BME280;16038;47.692;9.400;2023-05-21T03:12:04;96069.59;;;12.11;100.00
28927;BME280;16038;47.692;9.400;2023-05-21T03:14:30;96067.59;;;12.11;100.00
28927;BME280;16038;47.692;9.400;2023-05-21T03:16:55;96080.16;;;12.16;100.00
28927;BME280;16038;47.692;9.400;2023-05-21T03:19:20;96077.81;;;12.14;100.00
28927;BME280;16038;47.692;9.400;2023-05-21T03:21:46;96075.84;;;12.15;100.00
28927;BME280;16038;47.692;9.400;2023-05-21T03:24:13;96077.81;;;12.14;100.00
28927;BME280;16038;47.692;9.400;2023-05-21T03:26:39;96084.84;;;12.15;100.00
28927;BME280;16038;47.692;9.400;2023-05-21T03:29:04;96077.81;;;12.18;100.00
28927;BME280;16038;47.692;9.400;2023-05-21T03:31:30;96085.28;;;12.17;100.00
28927;BME280;16038;47.692;9.400;2023-05-21T03:33:55;96085.28;;;12.17;100.00
28927;BME280;16038;47.692;9.400;2023-05-21T03:36:21;96081.72;;;12.13;100.00
28927;BME280;16038;47.692;9.400;2023-05-21T03:38:46;96076.22;;;12.10;100.00
28927;BME280;16038;47.692;9.400;2023-05-21T03:41:12;96075.47;;;12.09;100.00
28927;BME280;16038;47.692;9.400;2023-05-21T03:43:37;96075.47;;;12.09;100.00
28927;BME280;16038;47.692;9.400;2023-05-21T03:46:03;96084.47;;;12.10;100.00
28927;BME280;16038;47.692;9.400;2023-05-21T03:48:28;96082.91;;;12.12;100.00
28927;BME280;16038;47.692;9.400;2023-05-21T03:50:54;96088.03;;;12.14;100.00
28927;BME280;16038;47.692;9.400;2023-05-21T03:53:19;96086.81;;;12.22;100.00
28927;BME280;16038;47.692;9.400;2023-05-21T03:55:45;96093.91;;;12.30;100.00
28927;BME280;16038;47.692;9.400;2023-05-21T03:58:11;96098.19;;;12.31;100.00
28927;BME280;16038;47.692;9.400;2023-05-21T04:00:36;96092.31;;;12.36;100.00
28927;BME280;16038;47.692;9.400;2023-05-21T04:03:02;96104.06;;;12.33;100.00
28927;BME280;16038;47.692;9.400;2023-05-21T04:05:28;96108.03;;;12.25;100.00
28927;BME280;16038;47.692;9.400;2023-05-21T04:07:53;96103.69;;;12.28;100.00
28927;BME280;16038;47.692;9.400;2023-05-21T04:10:19;96108.03;;;12.25;100.00
28927;BME280;16038;47.692;9.400;2023-05-21T04:12:45;96106.81;;;12.22;100.00
28927;BME280;16038;47.692;9.400;2023-05-21T04:15:13;96109.19;;;12.20;100.00
28927;BME280;16038;47.692;9.400;2023-05-21T04:17:38;96107.25;;;12.28;100.00
28927;BME280;16038;47.692;9.400;2023-05-21T04:20:04;96108.41;;;12.34;100.00
28927;BME280;16038;47.692;9.400;2023-05-21T04:22:30;96114.28;;;12.36;100.00
28927;BME280;16038;47.692;9.400;2023-05-21T04:24:55;96111.53;;;12.40;100.00
28927;BME280;16038;47.692;9.400;2023-05-21T04:27:21;96110.00;;;12.42;100.00
28927;BME280;16038;47.692;9.400;2023-05-21T04:29:50;96109.19;;;12.38;100.00
28927;BME280;16038;47.692;9.400;2023-05-21T04:32:15;96117.03;;;12.33;100.00
28927;BME280;16038;47.692;9.400;2023-05-21T04:34:42;96113.50;;;12.32;100.00
28927;BME280;16038;47.692;9.400;2023-05-21T04:37:08;96111.53;;;12.18;100.00
28927;BME280;16038;47.692;9.400;2023-05-21T04:39:33;96109.16;;;11.95;100.00
28927;BME280;16038;47.692;9.400;2023-05-21T04:41:59;96121.72;;;12.07;100.00
28927;BME280;16038;47.692;9.400;2023-05-21T04:44:24;96118.22;;;12.21;100.00
28927;BME280;16038;47.692;9.400;2023-05-21T04:46:49;96116.66;;;12.41;100.00
28927;BME280;16038;47.692;9.400;2023-05-21T04:49:15;96108.00;;;12.54;100.00
28927;BME280;16038;47.692;9.400;2023-05-21T04:51:40;96118.59;;;12.73;100.00
28927;BME280;16038;47.692;9.400;2023-05-21T04:54:06;96108.31;;;12.99;100.00
28927;BME280;16038;47.692;9.400;2023-05-21T04:56:31;96117.34;;;13.03;100.00
28927;BME280;16038;47.692;9.400;2023-05-21T04:58:57;96115.38;;;13.11;100.00
28927;BME280;16038;47.692;9.400;2023-05-21T05:01:23;96119.56;;;13.48;100.00
28927;BME280;16038;47.692;9.400;2023-05-21T05:03:51;96120.25;;;13.66;100.00
28927;BME280;16038;47.692;9.400;2023-05-21T05:06:16;96128.38;;;13.95;100.00
28927;BME280;16038;47.692;9.400;2023-05-21T05:08:42;96132.81;;;14.38;100.00
28927;BME280;16038;47.692;9.400;2023-05-21T05:11:08;96141.97;;;14.72;100.00
28927;BME280;16038;47.692;9.400;2023-05-21T05:13:34;96149.25;;;14.97;100.00
28927;BME280;16038;47.692;9.400;2023-05-21T05:15:59;96147.31;;;14.94;100.00
28927;BME280;16038;47.692;9.400;2023-05-21T05:18:25;96151.97;;;15.01;100.00
28927;BME280;16038;47.692;9.400;2023-05-21T05:20:51;96148.69;;;14.75;100.00
28927;BME280;16038;47.692;9.400;2023-05-21T05:23:16;96145.84;;;14.82;100.00
28927;BME280;16038;47.692;9.400;2023-05-21T05:25:41;96141.41;;;14.92;100.00
28927;BME280;16038;47.692;9.400;2023-05-21T05:28:07;96147.56;;;15.07;100.00
28927;BME280;16038;47.692;9.400;2023-05-21T05:30:32;96140.94;;;15.39;100.00
28927;BME280;16038;47.692;9.400;2023-05-21T05:32:58;96152.13;;;15.59;100.00
28927;BME280;16038;47.692;9.400;2023-05-21T05:35:23;96158.13;;;15.84;100.00
28927;BME280;16038;47.692;9.400;2023-05-21T05:37:48;96157.94;;;16.30;100.00
28927;BME280;16038;47.692;9.400;2023-05-21T05:40:14;96151.09;;;16.61;100.00
28927;BME280;16038;47.692;9.400;2023-05-21T05:42:39;96155.53;;;17.26;100.00
28927;BME280;16038;47.692;9.400;2023-05-21T05:45:05;96156.13;;;17.77;100.00
28927;BME280;16038;47.692;9.400;2023-05-21T05:47:31;96152.81;;;18.23;100.00
28927;BME280;16038;47.692;9.400;2023-05-21T05:49:56;96155.97;;;18.74;99.67
28927;BME280;16038;47.692;9.400;2023-05-21T05:52:21;96155.16;;;19.23;94.30
28927;BME280;16038;47.692;9.400;2023-05-21T05:54:47;96161.72;;;19.75;90.95
28927;BME280;16038;47.692;9.400;2023-05-21T05:57:12;96161.38;;;20.28;86.03
28927;BME280;16038;47.692;9.400;2023-05-21T05:59:38;96162.81;;;20.84;82.72
28927;BME280;16038;47.692;9.400;2023-05-21T06:02:03;96158.41;;;21.08;79.66
28927;BME280;16038;47.692;9.400;2023-05-21T06:04:29;96160.44;;;20.18;79.44
28927;BME280;16038;47.692;9.400;2023-05-21T06:06:58;96165.31;;;19.88;80.88
28927;BME280;16038;47.692;9.400;2023-05-21T06:09:24;96158.75;;;20.08;78.24
28927;BME280;16038;47.692;9.400;2023-05-21T06:11:50;96162.16;;;20.67;76.10
28927;BME280;16038;47.692;9.400;2023-05-21T06:14:15;96165.13;;;20.21;77.61
28927;BME280;16038;47.692;9.400;2023-05-21T06:16:41;96160.53;;;19.89;81.07
28927;BME280;16038;47.692;9.400;2023-05-21T06:19:06;96162.91;;;20.41;82.04
28927;BME280;16038;47.692;9.400;2023-05-21T06:21:32;96162.53;;;21.73;72.10
28927;BME280;16038;47.692;9.400;2023-05-21T06:23:57;96165.63;;;21.98;68.11
28927;BME280;16038;47.692;9.400;2023-05-21T06:26:23;96169.03;;;22.24;68.86
28927;BME280;16038;47.692;9.400;2023-05-21T06:28:48;96163.34;;;23.27;62.83
28927;BME280;16038;47.692;9.400;2023-05-21T06:31:14;96166.59;;;23.99;58.79
28927;BME280;16038;47.692;9.400;2023-05-21T06:33:40;96170.19;;;23.81;58.97
28927;BME280;16038;47.692;9.400;2023-05-21T06:36:06;96164.03;;;20.57;71.01
28927;BME280;16038;47.692;9.400;2023-05-21T06:38:31;96161.34;;;20.79;69.17
28927;BME280;16038;47.692;9.400;2023-05-21T06:40:57;96160.72;;;20.62;74.11
28927;BME280;16038;47.692;9.400;2023-05-21T06:43:23;96161.88;;;19.09;82.02
28927;BME280;16038;47.692;9.400;2023-05-21T06:45:48;96155.97;;;18.90;85.83
28927;BME280;16038;47.692;9.400;2023-05-21T06:48:14;96164.69;;;20.48;78.33
28927;BME280;16038;47.692;9.400;2023-05-21T06:50:43;96159.47;;;21.58;68.09
28927;BME280;16038;47.692;9.400;2023-05-21T06:53:08;96165.13;;;20.34;74.51
28927;BME280;16038;47.692;9.400;2023-05-21T06:55:34;96168.34;;;20.07;78.53
28927;BME280;16038;47.692;9.400;2023-05-21T06:58:00;96166.03;;;21.65;68.91
28927;BME280;16038;47.692;9.400;2023-05-21T07:00:25;96165.91;;;22.44;63.98
28927;BME280;16038;47.692;9.400;2023-05-21T07:02:51;96173.38;;;22.25;64.56
28927;BME280;16038;47.692;9.400;2023-05-21T07:05:16;96172.41;;;22.90;62.07
28927;BME280;16038;47.692;9.400;2023-05-21T07:07:42;96176.59;;;20.23;74.85
28927;BME280;16038;47.692;9.400;2023-05-21T07:10:08;96174.94;;;20.90;73.63
28927;BME280;16038;47.692;9.400;2023-05-21T07:12:33;96176.72;;;21.31;71.97
28927;BME280;16038;47.692;9.400;2023-05-21T07:14:59;96176.09;;;22.38;66.58
28927;BME280;16038;47.692;9.400;2023-05-21T07:17:24;96184.03;;;22.17;66.27
28927;BME280;16038;47.692;9.400;2023-05-21T07:19:50;96180.69;;;21.43;66.88
28927;BME280;16038;47.692;9.400;2023-05-21T07:22:15;96188.41;;;20.91;74.61
28927;BME280;16038;47.692;9.400;2023-05-21T07:24:40;96181.75;;;21.24;74.49
28927;BME280;16038;47.692;9.400;2023-05-21T07:27:06;96181.06;;;22.11;68.21
28927;BME280;16038;47.692;9.400;2023-05-21T07:29:34;96168.19;;;22.14;67.61
28927;BME280;16038;47.692;9.400;2023-05-21T07:32:00;96178.44;;;22.39;65.95
28927;BME280;16038;47.692;9.400;2023-05-21T07:34:25;96175.91;;;23.32;62.63
28927;BME280;16038;47.692;9.400;2023-05-21T07:36:51;96175.28;;;20.53;74.14
28927;BME280;16038;47.692;9.400;2023-05-21T07:39:16;96172.09;;;21.03;77.76
28927;BME280;16038;47.692;9.400;2023-05-21T07:41:42;96169.19;;;22.20;69.84
28927;BME280;16038;47.692;9.400;2023-05-21T07:44:07;96170.66;;;23.61;61.37
28927;BME280;16038;47.692;9.400;2023-05-21T07:46:32;96176.41;;;23.85;59.42
28927;BME280;16038;47.692;9.400;2023-05-21T07:48:58;96166.03;;;24.29;57.29
28927;BME280;16038;47.692;9.400;2023-05-21T07:51:24;96169.13;;;24.40;57.29
28927;BME280;16038;47.692;9.400;2023-05-21T07:53:49;96164.84;;;21.75;65.20
28927;BME280;16038;47.692;9.400;2023-05-21T07:56:15;96151.59;;;21.79;70.72
28927;BME280;16038;47.692;9.400;2023-05-21T07:58:40;96158.47;;;24.11;60.33
28927;BME280;16038;47.692;9.400;2023-05-21T08:01:08;96159.75;;;22.58;63.68
28927;BME280;16038;47.692;9.400;2023-05-21T08:03:33;96154.28;;;21.92;66.73
28927;BME280;16038;47.692;9.400;2023-05-21T08:05:58;96160.78;;;20.97;70.99
28927;BME280;16038;47.692;9.400;2023-05-21T08:08:24;96147.63;;;22.21;71.13
28927;BME280;16038;47.692;9.400;2023-05-21T08:10:50;96152.09;;;24.19;60.04
28927;BME280;16038;47.692;9.400;2023-05-21T08:13:16;96161.53;;;25.55;55.09
28927;BME280;16038;47.692;9.400;2023-05-21T08:15:42;96163.53;;;24.83;54.98
28927;BME280;16038;47.692;9.400;2023-05-21T08:18:07;96166.41;;;21.76;63.96
28927;BME280;16038;47.692;9.400;2023-05-21T08:20:33;96166.91;;;23.74;60.06
28927;BME280;16038;47.692;9.400;2023-05-21T08:22:58;96174.22;;;25.42;53.82
28927;BME280;16038;47.692;9.400;2023-05-21T08:25:25;96175.91;;;24.05;56.79
28927;BME280;16038;47.692;9.400;2023-05-21T08:27:50;96174.41;;;25.77;54.22
28927;BME280;16038;47.692;9.400;2023-05-21T08:30:16;96177.75;;;26.50;52.63
28927;BME280;16038;47.692;9.400;2023-05-21T08:32:41;96174.94;;;27.36;49.89
28927;BME280;16038;47.692;9.400;2023-05-21T08:35:07;96179.88;;;28.08;46.35
28927;BME280;16038;47.692;9.400;2023-05-21T08:37:33;96192.69;;;26.92;46.78
28927;BME280;16038;47.692;9.400;2023-05-21T08:39:58;96183.72;;;26.58;51.37
28927;BME280;16038;47.692;9.400;2023-05-21T08:42:39;96185.41;;;26.05;53.56
28927;BME280;16038;47.692;9.400;2023-05-21T08:45:10;96183.16;;;26.09;52.09
28927;BME280;16038;47.692;9.400;2023-05-21T08:47:36;96183.06;;;25.25;54.10
28927;BME280;16038;47.692;9.400;2023-05-21T08:50:08;96181.66;;;24.96;57.03
28927;BME280;16038;47.692;9.400;2023-05-21T08:52:34;96178.91;;;24.87;56.69
28927;BME280;16038;47.692;9.400;2023-05-21T08:55:02;96172.97;;;23.72;61.29
28927;BME280;16038;47.692;9.400;2023-05-21T08:57:30;96176.84;;;24.02;61.97
28927;BME280;16038;47.692;9.400;2023-05-21T08:59:56;96175.44;;;23.98;60.29
28927;BME280;16038;47.692;9.400;2023-05-21T09:02:22;96166.91;;;23.92;60.35
28927;BME280;16038;47.692;9.400;2023-05-21T09:04:52;96168.41;;;24.21;60.04
28927;BME280;16038;47.692;9.400;2023-05-21T09:07:24;96173.66;;;24.37;59.27
28927;BME280;16038;47.692;9.400;2023-05-21T09:09:56;96174.41;;;24.56;59.53
28927;BME280;16038;47.692;9.400;2023-05-21T09:12:26;96174.00;;;24.73;56.91
28927;BME280;16038;47.692;9.400;2023-05-21T09:14:52;96181.06;;;24.59;57.09
28927;BME280;16038;47.692;9.400;2023-05-21T09:17:18;96176.09;;;24.45;56.70
28927;BME280;16038;47.692;9.400;2023-05-21T09:20:03;96186.75;;;24.22;58.45
28927;BME280;16038;47.692;9.400;2023-05-21T09:22:34;96180.88;;;24.63;57.71
28927;BME280;16038;47.692;9.400;2023-05-21T09:25:03;96184.53;;;24.35;59.07
28927;BME280;16038;47.692;9.400;2023-05-21T09:27:29;96180.59;;;23.90;61.39
28927;BME280;16038;47.692;9.400;2023-05-21T09:29:54;96192.22;;;23.79;63.23
28927;BME280;16038;47.692;9.400;2023-05-21T09:32:20;96186.34;;;23.77;62.38
28927;BME280;16038;47.692;9.400;2023-05-21T09:34:46;96189.47;;;22.83;64.35
28927;BME280;16038;47.692;9.400;2023-05-21T09:37:12;96186.41;;;22.59;66.70
28927;BME280;16038;47.692;9.400;2023-05-21T09:39:39;96191.00;;;22.84;66.27
28927;BME280;16038;47.692;9.400;2023-05-21T09:42:05;96197.78;;;22.74;63.82
28927;BME280;16038;47.692;9.400;2023-05-21T09:44:31;96184.53;;;22.56;62.95
28927;BME280;16038;47.692;9.400;2023-05-21T09:46:57;96183.69;;;22.78;64.49
28927;BME280;16038;47.692;9.400;2023-05-21T09:49:25;96190.38;;;22.80;61.19
28927;BME280;16038;47.692;9.400;2023-05-21T09:51:55;96183.91;;;22.52;63.64
28927;BME280;16038;47.692;9.400;2023-05-21T09:54:22;96188.13;;;22.57;63.18
28927;BME280;16038;47.692;9.400;2023-05-21T09:56:49;96183.59;;;22.90;62.30
28927;BME280;16038;47.692;9.400;2023-05-21T09:59:15;96180.25;;;23.23;60.35
28927;BME280;16038;47.692;9.400;2023-05-21T10:01:41;96190.06;;;23.37;60.73
28927;BME280;16038;47.692;9.400;2023-05-21T10:04:08;96184.94;;;23.45;58.55
28927;BME280;16038;47.692;9.400;2023-05-21T10:06:38;96189.75;;;23.63;59.50
28927;BME280;16038;47.692;9.400;2023-05-21T10:09:09;96178.72;;;23.50;59.97
28927;BME280;16038;47.692;9.400;2023-05-21T10:11:34;96177.16;;;23.40;55.91
28927;BME280;16038;47.692;9.400;2023-05-21T10:14:04;96174.06;;;23.38;57.58
28927;BME280;16038;47.692;9.400;2023-05-21T10:16:35;96166.28;;;23.05;57.66
28927;BME280;16038;47.692;9.400;2023-05-21T10:19:01;96173.59;;;23.67;56.82
28927;BME280;16038;47.692;9.400;2023-05-21T10:21:27;96172.22;;;23.72;57.18
28927;BME280;16038;47.692;9.400;2023-05-21T10:23:54;96171.88;;;23.79;56.18
28927;BME280;16038;47.692;9.400;2023-05-21T10:26:22;96175.75;;;24.00;56.74
28927;BME280;16038;47.692;9.400;2023-05-21T10:28:51;96162.63;;;24.34;56.21
28927;BME280;16038;47.692;9.400;2023-05-21T10:31:17;96170.72;;;24.74;55.15
28927;BME280;16038;47.692;9.400;2023-05-21T10:33:42;96164.72;;;24.57;54.96
28927;BME280;16038;47.692;9.400;2023-05-21T10:36:08;96162.25;;;24.50;54.72
28927;BME280;16038;47.692;9.400;2023-05-21T10:38:36;96167.84;;;24.93;53.68
28927;BME280;16038;47.692;9.400;2023-05-21T10:41:04;96167.31;;;24.70;54.04
28927;BME280;16038;47.692;9.400;2023-05-21T10:43:44;96162.25;;;24.50;54.87
28927;BME280;16038;47.692;9.400;2023-05-21T10:51:52;96154.81;;;24.38;55.92
28927;BME280;16038;47.692;9.400;2023-05-21T10:57:08;96159.31;;;24.87;53.84
28927;BME280;16038;47.692;9.400;2023-05-21T10:59:43;96156.03;;;24.55;54.79
28927;BME280;16038;47.692;9.400;2023-05-21T11:02:13;96153.19;;;24.22;55.87
28927;BME280;16038;47.692;9.400;2023-05-21T11:04:41;96159.31;;;24.54;56.30
28927;BME280;16038;47.692;9.400;2023-05-21T11:07:11;96164.56;;;24.52;56.12
28927;BME280;16038;47.692;9.400;2023-05-21T11:09:37;96157.03;;;24.34;55.74
28927;BME280;16038;47.692;9.400;2023-05-21T11:12:03;96157.44;;;24.60;55.75
28927;BME280;16038;47.692;9.400;2023-05-21T11:14:39;96156.28;;;24.67;54.99
28927;BME280;16038;47.692;9.400;2023-05-21T11:19:45;96146.22;;;24.60;55.66
28927;BME280;16038;47.692;9.400;2023-05-21T11:22:27;96149.16;;;24.90;55.68
28927;BME280;16038;47.692;9.400;2023-05-21T11:24:54;96147.84;;;24.33;55.57
28927;BME280;16038;47.692;9.400;2023-05-21T11:29:58;96135.22;;;23.95;57.48
28927;BME280;16038;47.692;9.400;2023-05-21T11:32:23;96134.53;;;24.19;57.62
28927;BME280;16038;47.692;9.400;2023-05-21T11:34:49;96141.13;;;23.97;57.29
28927;BME280;16038;47.692;9.400;2023-05-21T11:39:51;96136.69;;;24.24;56.96
28927;BME280;16038;47.692;9.400;2023-05-21T11:42:29;96133.94;;;24.57;55.38
28927;BME280;16038;47.692;9.400;2023-05-21T11:44:56;96138.47;;;24.46;55.00
28927;BME280;16038;47.692;9.400;2023-05-21T11:47:26;96135.78;;;24.60;54.43
28927;BME280;16038;47.692;9.400;2023-05-21T11:49:53;96129.63;;;24.80;53.63
28927;BME280;16038;47.692;9.400;2023-05-21T11:52:19;96140.06;;;24.37;54.65
28927;BME280;16038;47.692;9.400;2023-05-21T11:54:46;96137.56;;;24.39;54.85
28927;BME280;16038;47.692;9.400;2023-05-21T11:57:15;96135.88;;;24.75;53.72
28927;BME280;16038;47.692;9.400;2023-05-21T11:59:41;96139.69;;;24.87;52.37
28927;BME280;16038;47.692;9.400;2023-05-21T12:02:07;96136.50;;;25.04;52.33
28927;BME280;16038;47.692;9.400;2023-05-21T12:04:34;96136.38;;;24.98;51.72
28927;BME280;16038;47.692;9.400;2023-05-21T12:07:04;96130.94;;;25.18;50.85
28927;BME280;16038;47.692;9.400;2023-05-21T12:09:47;96138.72;;;24.66;51.56
28927;BME280;16038;47.692;9.400;2023-05-21T12:12:20;96137.25;;;24.80;52.28
28927;BME280;16038;47.692;9.400;2023-05-21T12:14:48;96141.28;;;24.46;52.21
28927;BME280;16038;47.692;9.400;2023-05-21T12:17:16;96138.97;;;24.77;52.74
28927;BME280;16038;47.692;9.400;2023-05-21T12:19:42;96140.69;;;24.75;52.37
28927;BME280;16038;47.692;9.400;2023-05-21T12:22:08;96135.69;;;24.46;53.27
28927;BME280;16038;47.692;9.400;2023-05-21T12:24:35;96134.81;;;24.30;53.04
28927;BME280;16038;47.692;9.400;2023-05-21T12:27:02;96134.34;;;24.32;51.64
28927;BME280;16038;47.692;9.400;2023-05-21T12:29:35;96137.38;;;24.10;52.97
28927;BME280;16038;47.692;9.400;2023-05-21T12:32:02;96134.91;;;23.93;52.52
28927;BME280;16038;47.692;9.400;2023-05-21T12:34:41;96136.94;;;23.83;51.96
28927;BME280;16038;47.692;9.400;2023-05-21T12:37:22;96133.69;;;23.66;51.79
28927;BME280;16038;47.692;9.400;2023-05-21T12:39:50;96134.13;;;23.74;52.65
28927;BME280;16038;47.692;9.400;2023-05-21T12:42:15;96134.75;;;23.88;52.23
28927;BME280;16038;47.692;9.400;2023-05-21T12:44:47;96139.19;;;24.13;50.79
28927;BME280;16038;47.692;9.400;2023-05-21T12:47:13;96136.06;;;24.20;50.55
28927;BME280;16038;47.692;9.400;2023-05-21T12:49:40;96138.72;;;24.14;51.08
28927;BME280;16038;47.692;9.400;2023-05-21T12:52:13;96140.66;;;24.41;51.92
28927;BME280;16038;47.692;9.400;2023-05-21T12:54:40;96142.28;;;24.24;50.75
28927;BME280;16038;47.692;9.400;2023-05-21T12:57:14;96136.53;;;24.28;51.59
28927;BME280;16038;47.692;9.400;2023-05-21T12:59:58;96132.97;;;24.18;51.68
28927;BME280;16038;47.692;9.400;2023-05-21T13:02:25;96133.28;;;24.20;52.25
28927;BME280;16038;47.692;9.400;2023-05-21T13:04:58;96126.28;;;24.24;51.46
28927;BME280;16038;47.692;9.400;2023-05-21T13:07:29;96129.00;;;24.00;53.02
28927;BME280;16038;47.692;9.400;2023-05-21T13:09:55;96125.72;;;24.11;53.54
28927;BME280;16038;47.692;9.400;2023-05-21T13:12:22;96126.19;;;24.43;53.83